MCNK1: Lightning C Nr Mccune, KS

                                SHEF ID:       MCNK1     LIGHTNING C NR MCCUNE, KS
STATION TYPE:
Regulating: Stage = 14.50, Flow = 4191

STAGE RIV-FLOW BAT-LOAD
ft cfs volt
Ccp-Rev Ccp-Rev Ccp-Rev
(America/Chicago)
04/28 00:00 4.39 585 12.03
04/28 01:00 4.15 524 12.02
04/28 02:00 3.94 474 12.02
04/28 03:00 3.75 430 12.01
04/28 04:00 3.57 389 12.00
04/28 05:00 3.40 353 11.99
04/28 06:00 3.25 322 11.98
04/28 07:00 3.11 294 11.97
04/28 08:00 2.99 271 11.98
04/28 09:00 2.88 250 12.00
04/28 10:00 2.77 230 12.04
04/28 11:00 2.69 214 12.05
04/28 12:00 2.61 198 12.02
04/28 13:00 2.55 187 12.00
04/28 14:00 2.50 177 11.98
04/28 15:00 2.43 164 12.08
04/28 16:00 2.39 156 12.04
04/28 17:00 2.36 151 12.00
04/28 18:00 2.31 142 11.98
04/28 19:00 2.28 136 11.96
04/28 20:00 2.26 132 11.92
04/28 21:00 2.24 129 11.91
04/28 22:00 2.22 125 11.91
04/28 23:00 2.21 123 11.92
Data processed at Wed 29Apr2026 04:47 GMT

NOTICE: If you are parsing this page

Please convert to using our Data API. Starting early 2026 we will be migrating to: https://water.usace.army.mil with modern pages rendered in JavaScript. When this migration completes you will no longer be able to scrape this page! CWMSDataAPI (CDA)

Timeseries IDs (TSIDs)

TSIDs used from left to right in the data table
MCCU.Stage.Inst.1Hour.0.Ccp-Rev
MCCU.Flow.Inst.1Hour.0.Ccp-Rev
MCCU.Volt-Battery Load.Inst.1Hour.0.Ccp-Rev

                            

All information presented herein is the property of the government of the United States of America and may be revised or deleted at any time without prior notice. Dissemination of this information without the expressed written consent of the Public Affairs Office, Tulsa District U.S. Army Corps of Engineers is strictly prohibited. These data are gathered electronically and, as presented, have NOT undergone any form of quality control. These data are NOT guaranteed to be valid or correct.